createdAt,value
2018-11-14T00:00:52.005Z,94.60
2018-11-14T00:03:22.390Z,93.70
2018-11-14T00:05:52.181Z,94.50
2018-11-14T00:08:21.309Z,96.20
2018-11-14T00:10:50.674Z,96.40
2018-11-14T00:13:20.436Z,96.00
2018-11-14T00:15:49.634Z,95.00
2018-11-14T00:18:18.954Z,95.30
2018-11-14T00:20:48.041Z,95.50
2018-11-14T00:23:17.908Z,96.70
2018-11-14T00:25:46.995Z,95.30
2018-11-14T00:28:17.375Z,93.50
2018-11-14T00:30:47.502Z,93.20
2018-11-14T00:33:17.356Z,92.40
2018-11-14T00:35:47.084Z,92.60
2018-11-14T00:38:15.881Z,92.70
2018-11-14T00:40:45.109Z,94.10
2018-11-14T00:43:14.311Z,94.80
2018-11-14T00:45:44.907Z,94.90
2018-11-14T00:48:14.817Z,96.20
2018-11-14T00:50:44.640Z,96.60
2018-11-14T00:53:13.820Z,96.70
2018-11-14T00:55:43.703Z,96.40
2018-11-14T00:58:12.909Z,96.60
2018-11-14T01:00:42.071Z,97.00
2018-11-14T01:03:11.354Z,97.60
2018-11-14T01:05:40.473Z,98.50
2018-11-14T01:08:09.572Z,98.90
2018-11-14T01:10:38.685Z,98.10
2018-11-14T01:13:07.811Z,98.30
2018-11-14T01:15:36.971Z,98.60
2018-11-14T01:18:06.456Z,98.50
2018-11-14T01:20:35.405Z,98.90
2018-11-14T01:23:04.776Z,98.90
2018-11-14T01:25:33.890Z,98.50
2018-11-14T01:28:02.967Z,97.90
2018-11-14T01:30:32.090Z,99.30
2018-11-14T01:33:01.211Z,99.60
2018-11-14T01:35:30.784Z,99.90
2018-11-14T01:37:59.842Z,99.90
2018-11-14T01:40:28.946Z,99.90
2018-11-14T01:42:58.077Z,99.90
2018-11-14T01:45:27.180Z,99.90
2018-11-14T01:47:56.273Z,99.90
2018-11-14T01:50:25.474Z,99.90
2018-11-14T01:52:54.615Z,99.90
2018-11-14T01:55:23.714Z,99.90
2018-11-14T01:57:52.864Z,98.30
2018-11-14T02:00:23.245Z,97.00
2018-11-14T02:02:52.471Z,96.50
2018-11-14T02:05:21.570Z,95.90
2018-11-14T02:07:51.248Z,94.90
2018-11-14T02:10:20.973Z,93.80
2018-11-14T02:12:50.131Z,93.60
2018-11-14T02:15:22.429Z,94.40
2018-11-14T02:17:51.833Z,94.70
2018-11-14T02:20:20.973Z,94.70
2018-11-14T02:22:50.094Z,93.70
2018-11-14T02:25:19.197Z,93.20
2018-11-14T02:27:48.392Z,92.60
2018-11-14T02:30:19.546Z,93.50
2018-11-14T02:32:48.692Z,95.00
2018-11-14T02:35:17.751Z,95.70
2018-11-14T02:37:47.111Z,95.40
2018-11-14T02:40:17.394Z,95.50
2018-11-14T02:42:46.472Z,95.60
2018-11-14T02:45:15.852Z,95.90
2018-11-14T02:47:44.925Z,96.50
2018-11-14T02:50:15.290Z,97.20
2018-11-14T02:52:44.417Z,99.00
2018-11-14T02:55:14.527Z,98.20
2018-11-14T02:57:44.002Z,98.70
2018-11-14T03:00:15.385Z,98.40
2018-11-14T03:02:44.762Z,97.90
2018-11-14T03:05:14.561Z,96.70
2018-11-14T03:07:43.667Z,95.90
2018-11-14T03:10:15.426Z,95.80
2018-11-14T03:12:45.063Z,95.80
2018-11-14T03:15:16.433Z,95.20
2018-11-14T03:17:45.525Z,93.70
2018-11-14T03:20:15.886Z,94.30
2018-11-14T03:22:45.024Z,92.90
2018-11-14T03:25:14.446Z,92.40
2018-11-14T03:27:43.523Z,90.90
2018-11-14T03:30:14.176Z,91.60
2018-11-14T03:32:43.913Z,92.80
2018-11-14T03:35:13.722Z,93.30
2018-11-14T03:37:43.416Z,94.70
2018-11-14T03:40:14.859Z,95.90
2018-11-14T03:42:44.117Z,94.90
2018-11-14T03:45:14.233Z,93.00
2018-11-14T03:47:44.089Z,93.00
2018-11-14T03:50:13.238Z,93.40
2018-11-14T03:52:42.372Z,92.80
2018-11-14T03:55:11.447Z,94.80
2018-11-14T03:57:40.534Z,96.10
2018-11-14T04:00:11.805Z,96.50
2018-11-14T04:02:40.869Z,97.40
2018-11-14T04:05:10.147Z,97.90
2018-11-14T04:07:40.050Z,98.50
2018-11-14T04:10:10.437Z,98.80
2018-11-14T04:12:40.528Z,97.60
2018-11-14T04:15:11.180Z,96.40
2018-11-14T04:17:40.326Z,96.80
2018-11-14T04:20:11.500Z,96.70
2018-11-14T04:22:40.688Z,99.90
2018-11-14T04:25:11.701Z,96.90
2018-11-14T04:27:41.217Z,95.50
2018-11-14T04:30:12.403Z,96.90
2018-11-14T04:32:42.361Z,97.40
2018-11-14T04:35:12.623Z,97.90
2018-11-14T04:37:41.723Z,98.70
2018-11-14T04:40:12.689Z,98.90
2018-11-14T04:42:41.817Z,99.90
2018-11-14T04:45:12.941Z,99.90
2018-11-14T04:47:42.406Z,99.90
2018-11-14T04:50:13.507Z,99.90
2018-11-14T04:52:42.861Z,99.90
2018-11-14T04:55:13.248Z,99.90
2018-11-14T04:57:42.763Z,99.90
2018-11-14T05:00:12.935Z,99.90
2018-11-14T05:02:42.849Z,99.90
2018-11-14T05:05:13.610Z,99.90
2018-11-14T05:07:42.696Z,99.90
2018-11-14T05:10:14.264Z,99.90
2018-11-14T05:12:43.453Z,99.90
2018-11-14T05:15:14.462Z,99.90
2018-11-14T05:17:44.047Z,98.90
2018-11-14T05:20:14.249Z,98.80
2018-11-14T05:22:43.763Z,98.50
2018-11-14T05:25:13.084Z,98.00
2018-11-14T05:27:42.438Z,97.90
2018-11-14T05:30:13.631Z,98.60
2018-11-14T05:32:43.706Z,98.70
2018-11-14T05:35:13.349Z,98.10
2018-11-14T05:37:42.552Z,98.10
2018-11-14T05:40:13.819Z,99.10
2018-11-14T05:42:43.404Z,98.90
2018-11-14T05:45:15.208Z,99.10
2018-11-14T05:47:45.056Z,99.30
2018-11-14T05:50:20.390Z,99.10
2018-11-14T05:52:49.632Z,98.90
2018-11-14T05:55:18.773Z,98.40
2018-11-14T05:57:47.922Z,99.90
2018-11-14T06:00:25.785Z,99.90
2018-11-14T06:02:54.970Z,99.80
2018-11-14T06:05:24.062Z,98.70
2018-11-14T06:07:53.161Z,98.00
2018-11-14T06:10:22.394Z,98.10
2018-11-14T06:12:51.457Z,99.50
2018-11-14T06:15:21.544Z,99.90
2018-11-14T06:17:52.014Z,99.90
2018-11-14T06:20:21.995Z,99.90
2018-11-14T06:22:51.699Z,99.90
2018-11-14T06:25:24.874Z,99.90
2018-11-14T06:27:54.842Z,99.90
2018-11-14T06:30:24.469Z,99.90
2018-11-14T06:32:54.245Z,99.90
2018-11-14T06:35:23.852Z,99.90
2018-11-14T06:37:53.570Z,99.90
2018-11-14T06:40:22.877Z,99.60
2018-11-14T06:42:51.987Z,99.40
2018-11-14T06:45:23.210Z,99.80
2018-11-14T06:47:54.016Z,99.90
2018-11-14T06:50:24.844Z,99.90
2018-11-14T06:52:55.638Z,99.90
2018-11-14T06:55:25.974Z,99.90
2018-11-14T06:57:55.169Z,99.90
2018-11-14T07:00:25.717Z,99.90
2018-11-14T07:02:55.415Z,99.90
2018-11-14T07:05:24.587Z,99.90
2018-11-14T07:07:53.691Z,99.90
2018-11-14T07:10:25.182Z,99.90
2018-11-14T07:12:59.677Z,99.90
2018-11-14T07:15:29.508Z,99.90
2018-11-14T07:17:59.013Z,99.90
2018-11-14T07:20:31.093Z,99.90
2018-11-14T07:23:00.288Z,99.90
2018-11-14T07:25:30.085Z,99.00
2018-11-14T07:27:59.169Z,98.20
2018-11-14T07:30:29.295Z,99.00
2018-11-14T07:33:01.534Z,98.40
2018-11-14T07:35:30.623Z,98.60
2018-11-14T07:38:41.158Z,99.40
2018-11-14T07:41:13.646Z,98.70
2018-11-14T07:43:43.215Z,96.80
2018-11-14T07:46:12.812Z,96.00
2018-11-14T07:48:42.296Z,97.30
2018-11-14T07:51:11.494Z,98.10
2018-11-14T07:53:40.625Z,98.50
2018-11-14T07:56:09.814Z,98.60
2018-11-14T07:58:39.043Z,99.10
2018-11-14T08:01:08.590Z,99.80
2018-11-14T08:03:37.908Z,99.90
2018-11-14T08:06:08.033Z,99.90
2018-11-14T08:08:37.230Z,99.90
2018-11-14T08:11:07.098Z,99.90
2018-11-14T08:13:37.229Z,99.90
2018-11-14T08:16:07.097Z,99.90
2018-11-14T08:18:36.823Z,99.90
2018-11-14T08:21:06.339Z,99.90
2018-11-14T08:23:35.521Z,99.90
2018-11-14T08:26:04.974Z,99.90
2018-11-14T08:28:34.216Z,99.90
2018-11-14T08:36:01.811Z,99.90
2018-11-14T08:38:31.474Z,99.90
2018-11-14T08:41:00.565Z,99.90
2018-11-14T08:43:29.805Z,99.90
2018-11-14T08:45:58.987Z,99.90
2018-11-14T08:48:28.193Z,99.90
2018-11-14T08:50:57.461Z,93.70
2018-11-14T08:53:26.651Z,91.90
2018-11-14T08:55:55.815Z,83.10
2018-11-14T08:58:25.127Z,78.00
2018-11-14T09:00:54.371Z,71.10
2018-11-14T09:03:23.508Z,72.40
2018-11-14T09:05:52.700Z,74.50
2018-11-14T09:08:21.856Z,73.70
2018-11-14T09:10:50.997Z,68.00
2018-11-14T09:13:20.201Z,65.70
2018-11-14T09:15:50.079Z,67.50
2018-11-14T09:18:19.296Z,64.50
2018-11-14T09:20:48.348Z,62.10
2018-11-14T09:23:19.309Z,64.00
2018-11-14T09:25:48.548Z,64.50
2018-11-14T09:28:18.375Z,63.90
2018-11-14T09:30:47.545Z,63.40
2018-11-14T09:33:17.574Z,64.10
2018-11-14T09:35:46.648Z,65.10
2018-11-14T09:38:15.849Z,65.30
2018-11-14T09:40:45.055Z,64.80
2018-11-14T09:43:14.241Z,61.80
2018-11-14T09:45:43.462Z,61.40
2018-11-14T09:48:12.617Z,60.00
2018-11-14T09:50:41.870Z,57.40
2018-11-14T09:53:11.680Z,57.10
2018-11-14T09:55:40.799Z,56.00
2018-11-14T09:58:09.881Z,56.00
2018-11-14T10:00:39.101Z,58.00
2018-11-14T10:03:10.301Z,58.20
2018-11-14T10:05:39.549Z,58.70
2018-11-14T10:08:08.645Z,58.60
2018-11-14T10:10:37.846Z,59.60
2018-11-14T10:13:07.113Z,58.80
2018-11-14T10:15:36.281Z,59.60
2018-11-14T10:18:05.393Z,60.10
2018-11-14T10:20:35.264Z,60.10
2018-11-14T10:23:04.564Z,60.00
2018-11-14T10:25:34.151Z,59.60
2018-11-14T10:28:03.637Z,59.20
2018-11-14T10:30:33.535Z,58.40
2018-11-14T10:33:02.813Z,58.70
2018-11-14T10:35:32.473Z,58.70
2018-11-14T10:38:01.533Z,58.90
2018-11-14T10:40:30.809Z,58.00
2018-11-14T10:43:00.680Z,58.70
2018-11-14T10:45:29.694Z,57.20
2018-11-14T10:47:58.833Z,58.60
2018-11-14T10:50:28.942Z,58.20
2018-11-14T10:52:58.066Z,57.50
2018-11-14T10:55:27.470Z,58.50
2018-11-14T10:57:56.560Z,57.20
2018-11-14T11:00:32.006Z,57.60
2018-11-14T11:03:07.257Z,56.80
2018-11-14T11:05:41.711Z,56.40
2018-11-14T11:08:16.267Z,56.70
2018-11-14T11:11:51.457Z,56.20
2018-11-14T11:14:25.949Z,55.80
2018-11-14T11:17:00.381Z,55.30
2018-11-14T11:19:30.753Z,54.80
2018-11-14T11:22:00.871Z,52.90
2018-11-14T11:24:30.667Z,51.50
2018-11-14T11:26:59.840Z,52.10
2018-11-14T11:29:29.027Z,53.10
2018-11-14T11:31:58.251Z,53.40
2018-11-14T11:34:27.377Z,53.60
2018-11-14T11:36:56.640Z,54.50
2018-11-14T11:39:25.891Z,55.40
2018-11-14T11:41:55.047Z,56.20
2018-11-14T11:44:24.290Z,55.50
2018-11-14T11:46:53.518Z,55.40
2018-11-14T11:49:22.814Z,55.00
2018-11-14T11:51:51.963Z,54.30
2018-11-14T11:54:21.148Z,54.30
2018-11-14T11:56:50.406Z,54.30
2018-11-14T11:59:19.668Z,54.20
2018-11-14T12:01:48.797Z,54.70
2018-11-14T12:04:18.079Z,55.30
2018-11-14T12:06:47.222Z,51.80
2018-11-14T12:09:16.361Z,50.80
2018-11-14T12:11:45.925Z,52.50
2018-11-14T12:14:15.121Z,51.90
2018-11-14T12:16:44.204Z,51.70
2018-11-14T12:19:13.489Z,53.00
2018-11-14T12:21:43.175Z,55.50
2018-11-14T12:24:12.294Z,55.40
2018-11-14T12:26:41.596Z,54.50
2018-11-14T12:29:10.841Z,55.30
2018-11-14T12:31:39.989Z,56.20
2018-11-14T12:34:09.748Z,55.30
2018-11-14T12:36:38.902Z,54.90
2018-11-14T12:39:11.002Z,55.00
2018-11-14T12:41:40.729Z,55.20
2018-11-14T12:44:10.083Z,55.10
2018-11-14T12:46:39.383Z,53.80
2018-11-14T12:49:08.505Z,54.60
2018-11-14T12:51:38.134Z,53.90
2018-11-14T12:54:07.217Z,54.50
2018-11-14T12:56:36.538Z,54.00
2018-11-14T12:59:06.309Z,54.60
2018-11-14T13:01:35.607Z,54.80
2018-11-14T13:04:05.106Z,54.80
2018-11-14T13:06:34.264Z,54.90
2018-11-14T13:09:04.588Z,53.20
2018-11-14T13:11:33.709Z,52.10
2018-11-14T13:14:03.169Z,51.60
2018-11-14T13:16:32.384Z,51.60
2018-11-14T13:19:01.534Z,51.90
2018-11-14T13:21:30.732Z,52.60
2018-11-14T13:23:59.884Z,53.60
2018-11-14T13:26:28.988Z,53.50
2018-11-14T13:28:58.222Z,54.20
2018-11-14T13:31:27.448Z,54.20
2018-11-14T13:33:56.609Z,54.20
2018-11-14T13:36:25.793Z,53.70
2018-11-14T13:38:55.078Z,53.40
2018-11-14T13:41:25.769Z,54.40
2018-11-14T13:43:54.974Z,55.80
2018-11-14T13:46:24.108Z,56.80
2018-11-14T13:48:53.281Z,57.10
2018-11-14T13:51:22.385Z,56.90
2018-11-14T13:53:51.608Z,58.30
2018-11-14T13:56:21.469Z,58.50
2018-11-14T13:58:50.598Z,58.50
2018-11-14T14:01:19.795Z,57.80
2018-11-14T14:03:49.395Z,58.40
2018-11-14T14:06:18.636Z,58.90
2018-11-14T14:08:47.978Z,59.10
2018-11-14T14:11:17.134Z,59.40
2018-11-14T14:13:51.539Z,60.40
2018-11-14T14:16:20.810Z,61.60
2018-11-14T14:18:49.994Z,61.30
2018-11-14T14:21:19.150Z,63.70
2018-11-14T14:23:48.285Z,64.40
2018-11-14T14:26:18.325Z,65.30
2018-11-14T14:28:47.493Z,66.50
2018-11-14T14:31:16.609Z,68.10
2018-11-14T14:33:45.887Z,68.20
2018-11-14T14:36:15.113Z,70.10
2018-11-14T14:38:44.280Z,71.10
2018-11-14T14:41:13.487Z,70.50
2018-11-14T14:43:42.972Z,70.60
2018-11-14T14:46:12.403Z,73.40
2018-11-14T14:48:42.293Z,73.20
2018-11-14T14:51:11.441Z,72.30
2018-11-14T14:53:40.533Z,72.90
2018-11-14T14:56:10.547Z,74.70
2018-11-14T14:58:39.638Z,76.20
2018-11-14T15:01:08.827Z,78.70
2018-11-14T15:03:38.075Z,80.90
2018-11-14T15:06:07.140Z,82.50
2018-11-14T15:08:36.288Z,84.10
2018-11-14T15:11:06.060Z,85.00
2018-11-14T15:13:35.245Z,86.00
2018-11-14T15:16:04.642Z,86.40
2018-11-14T15:18:34.646Z,87.00
2018-11-14T15:21:03.768Z,87.80
2018-11-14T15:23:33.004Z,88.60
2018-11-14T15:26:02.867Z,88.70
2018-11-14T15:28:34.003Z,88.70
2018-11-14T15:31:03.613Z,88.80
2018-11-14T15:33:32.705Z,90.30
2018-11-14T15:36:01.823Z,90.70
2018-11-14T15:38:31.054Z,91.10
2018-11-14T15:41:00.569Z,91.90
2018-11-14T15:43:30.634Z,92.40
2018-11-14T15:45:59.917Z,92.90
2018-11-14T15:48:31.790Z,93.50
2018-11-14T15:51:00.892Z,94.00
2018-11-14T15:53:30.121Z,95.00
2018-11-14T15:55:59.950Z,95.80
2018-11-14T15:58:29.334Z,96.60
2018-11-14T16:00:58.986Z,96.50
2018-11-14T16:03:28.968Z,96.80
2018-11-14T16:05:59.062Z,97.10
2018-11-14T16:08:28.141Z,97.50
2018-11-14T16:10:57.261Z,98.10
2018-11-14T16:13:27.630Z,98.40
2018-11-14T16:15:56.719Z,98.40
2018-11-14T16:18:25.813Z,98.90
2018-11-14T16:20:55.088Z,99.40
2018-11-14T16:23:24.658Z,99.20
2018-11-14T16:25:56.001Z,99.40
2018-11-14T16:28:25.945Z,99.70
2018-11-14T16:30:55.205Z,99.90
2018-11-14T16:33:24.334Z,99.90
2018-11-14T16:35:53.419Z,99.90
2018-11-14T16:38:22.577Z,99.90
2018-11-14T16:40:51.832Z,99.90
2018-11-14T16:43:20.928Z,99.90
2018-11-14T16:45:50.049Z,99.90
2018-11-14T16:48:19.131Z,99.90
2018-11-14T16:50:48.437Z,99.90
2018-11-14T16:53:17.514Z,99.90
2018-11-14T16:55:47.444Z,99.90
2018-11-14T16:58:16.445Z,99.90
2018-11-14T17:00:45.589Z,99.90
2018-11-14T17:03:14.698Z,99.90
2018-11-14T17:05:44.013Z,99.90
2018-11-14T17:08:13.075Z,99.90
2018-11-14T17:10:42.213Z,99.90
2018-11-14T17:13:11.358Z,99.90
2018-11-14T17:15:41.032Z,99.90
2018-11-14T17:18:10.097Z,99.90
2018-11-14T17:20:39.349Z,99.90
2018-11-14T17:23:08.564Z,99.90
2018-11-14T17:25:37.850Z,99.90
2018-11-14T17:28:07.017Z,99.90
2018-11-14T17:30:36.682Z,99.90
2018-11-14T17:33:06.457Z,99.90
2018-11-14T17:35:35.657Z,99.90
2018-11-14T17:38:04.854Z,99.90
2018-11-14T17:40:33.966Z,99.90
2018-11-14T17:43:03.156Z,99.90
2018-11-14T17:45:32.218Z,99.90
2018-11-14T17:48:01.378Z,99.90
2018-11-14T17:50:32.796Z,99.90
2018-11-14T17:53:02.629Z,99.90
2018-11-14T17:58:01.034Z,99.90
2018-11-14T18:00:31.106Z,99.90
2018-11-14T18:03:00.393Z,99.90
2018-11-14T18:05:30.784Z,99.90
2018-11-14T18:08:00.926Z,99.90
2018-11-14T18:10:31.782Z,99.90
2018-11-14T18:13:02.174Z,99.90
2018-11-14T18:15:31.276Z,99.90
2018-11-14T18:18:00.677Z,99.90
2018-11-14T18:20:31.250Z,99.90
2018-11-14T18:23:00.736Z,99.90
2018-11-14T18:25:29.952Z,99.90
2018-11-14T18:27:59.125Z,99.30
2018-11-14T18:30:29.546Z,98.40
2018-11-14T18:32:59.566Z,98.40
2018-11-14T18:35:29.115Z,98.60
2018-11-14T18:37:59.204Z,98.40
2018-11-14T18:40:31.914Z,98.30
2018-11-14T18:43:01.682Z,98.80
2018-11-14T18:45:34.359Z,98.60
2018-11-14T18:48:04.292Z,99.20
2018-11-14T18:50:33.436Z,98.80
2018-11-14T18:53:02.665Z,98.60
2018-11-14T18:55:33.069Z,98.90
2018-11-14T18:58:02.987Z,99.30
2018-11-14T19:00:33.295Z,99.90
2018-11-14T19:03:02.437Z,99.90
2018-11-14T19:05:31.577Z,99.90
2018-11-14T19:08:01.418Z,99.90
2018-11-14T19:10:32.157Z,99.90
2018-11-14T19:13:01.323Z,99.90
2018-11-14T19:15:32.411Z,99.90
2018-11-14T19:18:02.318Z,99.90
2018-11-14T19:20:32.619Z,99.90
